createdAt,value
2019-03-19T00:02:19.995Z,99.90
2019-03-19T00:04:50.179Z,99.90
2019-03-19T00:07:20.327Z,99.90
2019-03-19T00:09:50.634Z,99.90
2019-03-19T00:12:20.880Z,99.90
2019-03-19T00:14:51.443Z,99.90
2019-03-19T00:17:21.668Z,99.90
2019-03-19T00:19:51.917Z,99.90
2019-03-19T00:22:25.898Z,99.90
2019-03-19T00:24:56.140Z,99.90
2019-03-19T00:27:27.323Z,99.90
2019-03-19T00:29:57.531Z,99.90
2019-03-19T00:32:27.681Z,99.90
2019-03-19T00:34:57.903Z,99.90
2019-03-19T00:37:28.160Z,99.90
2019-03-19T00:39:58.331Z,99.90
2019-03-19T00:42:28.496Z,99.90
2019-03-19T00:44:58.685Z,99.90
2019-03-19T00:47:28.843Z,99.90
2019-03-19T00:49:59.017Z,99.90
2019-03-19T00:52:29.224Z,99.90
2019-03-19T00:54:59.512Z,99.90
2019-03-19T00:57:30.772Z,99.90
2019-03-19T01:00:00.918Z,99.90
2019-03-19T01:02:31.171Z,99.90
2019-03-19T01:05:01.339Z,99.90
2019-03-19T01:07:32.665Z,99.90
2019-03-19T01:10:02.867Z,99.90
2019-03-19T01:12:33.113Z,99.90
2019-03-19T01:15:03.687Z,99.90
2019-03-19T01:17:33.968Z,99.90
2019-03-19T01:20:04.732Z,99.90
2019-03-19T01:22:35.120Z,99.90
2019-03-19T01:25:06.390Z,99.90
2019-03-19T01:27:36.563Z,99.90
2019-03-19T01:30:07.955Z,99.90
2019-03-19T01:32:39.154Z,99.90
2019-03-19T01:35:09.301Z,99.90
2019-03-19T01:37:39.516Z,99.90
2019-03-19T01:40:09.702Z,99.90
2019-03-19T01:42:39.866Z,99.90
2019-03-19T01:45:10.264Z,99.90
2019-03-19T01:47:40.447Z,99.90
2019-03-19T01:50:10.735Z,99.90
2019-03-19T01:52:40.912Z,99.90
2019-03-19T01:55:11.104Z,99.90
2019-03-19T01:57:41.296Z,99.90
2019-03-19T02:00:11.937Z,99.90
2019-03-19T02:02:42.243Z,99.90
2019-03-19T02:05:12.390Z,99.90
2019-03-19T02:07:42.588Z,99.90
2019-03-19T02:10:12.947Z,99.90
2019-03-19T02:12:43.233Z,99.90
2019-03-19T02:15:13.624Z,99.90
2019-03-19T02:17:43.823Z,99.90
2019-03-19T02:20:14.018Z,99.90
2019-03-19T02:22:44.203Z,99.90
2019-03-19T02:25:14.383Z,99.90
2019-03-19T02:27:44.571Z,99.90
2019-03-19T02:30:14.918Z,99.90
2019-03-19T02:32:45.165Z,99.90
2019-03-19T02:35:16.380Z,99.90
2019-03-19T02:37:46.551Z,99.90
2019-03-19T02:40:16.763Z,99.90
2019-03-19T02:42:46.928Z,99.90
2019-03-19T02:45:17.076Z,99.90
2019-03-19T02:47:47.263Z,99.90
2019-03-19T02:50:17.460Z,99.90
2019-03-19T02:52:47.694Z,99.90
2019-03-19T02:55:17.911Z,99.90
2019-03-19T02:57:48.151Z,99.90
2019-03-19T03:00:18.331Z,99.90
2019-03-19T03:02:48.491Z,99.90
2019-03-19T03:05:18.967Z,99.90
2019-03-19T03:07:49.156Z,99.90
2019-03-19T03:10:19.390Z,99.90
2019-03-19T03:12:49.568Z,99.90
2019-03-19T03:15:19.740Z,99.90
2019-03-19T03:17:49.993Z,99.90
2019-03-19T03:20:20.143Z,99.90
2019-03-19T03:22:50.331Z,99.90
2019-03-19T03:25:20.568Z,99.90
2019-03-19T03:27:50.749Z,99.90
2019-03-19T03:30:20.926Z,99.90
2019-03-19T03:32:51.123Z,99.90
2019-03-19T03:35:21.379Z,99.90
2019-03-19T03:37:51.603Z,99.90
2019-03-19T03:40:21.959Z,99.90
2019-03-19T03:42:52.124Z,99.90
2019-03-19T03:45:22.283Z,99.90
2019-03-19T03:47:52.451Z,99.90
2019-03-19T03:50:22.599Z,99.90
2019-03-19T03:52:52.772Z,99.90
2019-03-19T03:55:22.941Z,99.90
2019-03-19T03:57:53.177Z,99.90
2019-03-19T04:00:23.356Z,99.90
2019-03-19T04:02:53.533Z,99.90
2019-03-19T04:05:23.761Z,99.90
2019-03-19T04:07:54.137Z,99.90
2019-03-19T04:10:24.290Z,99.90
2019-03-19T04:12:54.541Z,99.90
2019-03-19T04:15:24.735Z,99.90
2019-03-19T04:17:54.893Z,99.90
2019-03-19T04:20:25.090Z,99.90
2019-03-19T04:22:55.231Z,99.90
2019-03-19T04:25:25.408Z,99.90
2019-03-19T04:27:55.551Z,99.90
2019-03-19T04:30:25.724Z,99.90
2019-03-19T04:32:55.896Z,99.90
2019-03-19T04:35:26.067Z,99.90
2019-03-19T04:37:56.216Z,99.90
2019-03-19T04:40:26.390Z,99.90
2019-03-19T04:42:56.547Z,99.90
2019-03-19T04:45:26.711Z,99.90
2019-03-19T04:47:56.857Z,99.90
2019-03-19T04:50:27.024Z,99.90
2019-03-19T04:52:57.172Z,99.90
2019-03-19T04:55:27.347Z,99.90
2019-03-19T04:57:57.515Z,99.90
2019-03-19T05:00:27.684Z,99.90
2019-03-19T05:02:57.854Z,99.90
2019-03-19T05:05:28.041Z,99.90
2019-03-19T05:07:58.187Z,99.90
2019-03-19T05:10:30.066Z,99.90
2019-03-19T05:13:00.878Z,99.90
2019-03-19T05:15:31.311Z,99.90
2019-03-19T05:18:01.480Z,99.90
2019-03-19T05:20:31.695Z,99.90
2019-03-19T05:23:01.869Z,99.90
2019-03-19T05:25:33.153Z,99.90
2019-03-19T05:28:03.449Z,99.90
2019-03-19T05:30:33.609Z,99.90
2019-03-19T05:33:03.755Z,99.90
2019-03-19T05:35:33.983Z,99.90
2019-03-19T05:38:04.359Z,99.90
2019-03-19T05:40:34.535Z,99.90
2019-03-19T05:43:04.700Z,99.90
2019-03-19T05:45:34.884Z,99.90
2019-03-19T05:48:05.050Z,99.90
2019-03-19T05:50:35.228Z,99.90
2019-03-19T05:53:05.403Z,99.90
2019-03-19T05:55:35.714Z,99.90
2019-03-19T05:58:05.879Z,99.90
2019-03-19T06:00:36.439Z,99.90
2019-03-19T06:03:06.604Z,99.90
2019-03-19T06:05:36.784Z,99.90
2019-03-19T06:08:07.124Z,99.90
2019-03-19T06:10:37.387Z,99.90
2019-03-19T06:13:07.534Z,99.90
2019-03-19T06:15:37.719Z,99.90
2019-03-19T06:18:07.896Z,99.90
2019-03-19T06:20:38.091Z,99.90
2019-03-19T06:23:08.280Z,99.90
2019-03-19T06:25:38.463Z,99.90
2019-03-19T06:28:08.601Z,99.90
2019-03-19T06:30:38.802Z,99.90
2019-03-19T06:33:08.979Z,99.90
2019-03-19T06:35:39.159Z,99.90
2019-03-19T06:38:09.315Z,99.90
2019-03-19T06:40:39.494Z,99.90
2019-03-19T06:43:09.676Z,99.90
2019-03-19T06:45:39.911Z,99.90
2019-03-19T06:48:10.084Z,99.90
2019-03-19T06:50:45.142Z,99.90
2019-03-19T06:53:12.212Z,99.90
2019-03-19T06:55:42.407Z,99.90
2019-03-19T06:58:12.526Z,99.90
2019-03-19T07:00:42.679Z,99.90
2019-03-19T07:03:12.869Z,99.90
2019-03-19T07:05:43.017Z,96.90
2019-03-19T07:08:13.178Z,91.90
2019-03-19T07:10:43.368Z,86.20
2019-03-19T07:13:13.533Z,91.30
2019-03-19T07:15:43.742Z,80.70
2019-03-19T07:18:13.916Z,76.10
2019-03-19T07:20:44.083Z,72.60
2019-03-19T07:23:14.235Z,99.80
2019-03-19T07:25:44.419Z,99.90
2019-03-19T07:28:22.079Z,99.90
2019-03-19T07:30:46.474Z,99.90
2019-03-19T07:33:16.643Z,99.90
2019-03-19T07:35:46.802Z,99.90
2019-03-19T07:38:16.956Z,99.90
2019-03-19T07:40:47.144Z,99.90
2019-03-19T07:43:17.296Z,99.90
2019-03-19T07:45:47.495Z,99.90
2019-03-19T07:48:17.720Z,99.90
2019-03-19T07:50:48.052Z,99.90
2019-03-19T07:53:18.183Z,93.30
2019-03-19T07:55:48.337Z,82.20
2019-03-19T07:58:18.488Z,72.10
2019-03-19T08:00:48.665Z,58.60
2019-03-19T08:03:18.812Z,51.40
2019-03-19T08:05:48.995Z,43.30
2019-03-19T08:08:19.175Z,38.60
2019-03-19T08:10:51.151Z,34.40
2019-03-19T08:13:21.315Z,32.90
2019-03-19T08:15:51.460Z,34.60
2019-03-19T08:18:21.638Z,31.90
2019-03-19T08:20:51.783Z,31.90
2019-03-19T08:23:22.051Z,33.90
2019-03-19T08:25:52.304Z,35.90
2019-03-19T08:28:23.541Z,40.30
2019-03-19T08:30:53.687Z,34.00
2019-03-19T08:33:23.896Z,31.30
2019-03-19T08:35:54.052Z,32.10
2019-03-19T08:38:26.428Z,29.80
2019-03-19T08:40:57.223Z,34.00
2019-03-19T08:43:27.399Z,44.20
2019-03-19T08:45:57.592Z,48.10
2019-03-19T08:48:27.782Z,50.80
2019-03-19T08:50:57.927Z,44.70
2019-03-19T08:53:28.100Z,41.10
2019-03-19T08:55:58.329Z,38.30
2019-03-19T08:58:28.502Z,34.80
2019-03-19T09:00:59.762Z,33.30
2019-03-19T09:03:29.953Z,34.20
2019-03-19T09:06:00.116Z,30.10
2019-03-19T09:08:30.301Z,33.20
2019-03-19T09:11:00.471Z,32.20
2019-03-19T09:13:30.677Z,31.30
2019-03-19T09:16:00.852Z,30.80
2019-03-19T09:18:31.119Z,32.60
2019-03-19T09:21:01.274Z,27.50
2019-03-19T09:23:33.231Z,27.10
2019-03-19T09:26:05.103Z,25.10
2019-03-19T09:28:36.447Z,23.00
2019-03-19T09:31:06.601Z,18.60
2019-03-19T09:33:36.778Z,18.70
2019-03-19T09:36:07.011Z,20.70
2019-03-19T09:38:37.195Z,28.00
2019-03-19T09:41:07.368Z,24.60
2019-03-19T09:43:37.530Z,14.70
2019-03-19T09:46:07.691Z,11.10
2019-03-19T09:48:37.887Z,11.80
2019-03-19T09:51:08.023Z,10.40
2019-03-19T09:53:38.180Z,9.10
2019-03-19T09:56:08.320Z,6.60
2019-03-19T09:58:38.468Z,9.70
2019-03-19T10:01:10.081Z,9.40
2019-03-19T10:03:40.266Z,10.60
2019-03-19T10:06:14.407Z,9.90
2019-03-19T10:08:42.284Z,9.00
2019-03-19T10:11:12.455Z,11.40
2019-03-19T10:13:42.687Z,11.60
2019-03-19T10:16:12.947Z,10.40
2019-03-19T10:18:44.230Z,8.00
2019-03-19T10:21:14.395Z,7.10
2019-03-19T10:23:44.567Z,4.60
2019-03-19T10:26:14.704Z,2.10
2019-03-19T10:28:44.899Z,1.00
2019-03-19T10:31:15.171Z,1.00
2019-03-19T10:33:45.374Z,1.00
2019-03-19T10:36:15.508Z,1.00
2019-03-19T10:38:45.663Z,1.00
2019-03-19T10:41:16.025Z,1.00
2019-03-19T10:43:46.219Z,1.00
2019-03-19T10:46:16.373Z,1.00
2019-03-19T10:48:46.655Z,1.00
2019-03-19T10:51:16.783Z,1.00
2019-03-19T10:53:46.964Z,1.00
2019-03-19T10:56:17.107Z,1.00
2019-03-19T10:58:47.261Z,1.00
2019-03-19T11:01:17.394Z,1.00
2019-03-19T11:03:47.636Z,1.00
2019-03-19T11:06:19.252Z,1.00
2019-03-19T11:08:49.396Z,1.00
2019-03-19T11:11:20.536Z,1.00
2019-03-19T11:13:50.771Z,1.00
2019-03-19T11:16:20.926Z,1.00
2019-03-19T11:18:51.098Z,1.00
2019-03-19T11:21:21.359Z,1.00
2019-03-19T11:23:52.607Z,1.00
2019-03-19T11:26:22.769Z,1.00
2019-03-19T11:28:52.926Z,1.00
2019-03-19T11:31:24.065Z,1.00
2019-03-19T11:33:54.320Z,1.00
2019-03-19T11:36:24.475Z,1.00
2019-03-19T11:38:54.638Z,1.00
2019-03-19T11:41:24.908Z,1.00
2019-03-19T11:43:55.050Z,1.00
2019-03-19T11:46:25.316Z,1.00
2019-03-19T11:48:55.604Z,1.00
2019-03-19T11:51:25.733Z,1.00
2019-03-19T11:53:55.906Z,1.00
2019-03-19T11:56:26.084Z,1.00
2019-03-19T11:58:56.281Z,1.00
2019-03-19T12:01:26.491Z,1.00
2019-03-19T12:03:56.660Z,1.00
2019-03-19T12:06:26.852Z,1.00
2019-03-19T12:08:57.162Z,1.00
2019-03-19T12:11:27.391Z,1.00
2019-03-19T12:13:57.598Z,1.00
2019-03-19T12:16:27.767Z,1.00
2019-03-19T12:18:58.007Z,1.00
2019-03-19T12:21:28.176Z,1.00
2019-03-19T12:23:58.328Z,1.00
2019-03-19T12:26:28.547Z,1.00
2019-03-19T12:28:58.736Z,1.00
2019-03-19T12:31:28.898Z,1.00
2019-03-19T12:33:59.071Z,1.00
2019-03-19T12:36:29.279Z,1.00
2019-03-19T12:38:59.534Z,1.00
2019-03-19T12:41:29.728Z,1.00
2019-03-19T12:43:59.923Z,1.00
2019-03-19T12:46:31.963Z,1.00
2019-03-19T12:49:02.140Z,1.00
2019-03-19T12:51:32.301Z,1.00
2019-03-19T12:54:02.460Z,1.20
2019-03-19T12:56:32.631Z,1.00
2019-03-19T12:59:02.895Z,1.20
2019-03-19T13:01:33.198Z,3.10
2019-03-19T13:04:03.569Z,2.90
2019-03-19T13:06:33.858Z,2.30
2019-03-19T13:09:05.535Z,7.80
2019-03-19T13:11:35.970Z,9.20
2019-03-19T13:14:06.126Z,12.70
2019-03-19T13:16:36.319Z,16.10
2019-03-19T13:19:06.508Z,14.70
2019-03-19T13:21:36.648Z,18.90
2019-03-19T13:24:06.870Z,19.40
2019-03-19T13:26:37.107Z,24.40
2019-03-19T13:29:07.320Z,21.10
2019-03-19T13:31:37.504Z,24.00
2019-03-19T13:34:07.699Z,20.40
2019-03-19T13:36:37.865Z,19.10
2019-03-19T13:39:09.066Z,16.70
2019-03-19T13:41:39.220Z,17.70
2019-03-19T13:44:11.275Z,20.80
2019-03-19T13:46:42.319Z,23.00
2019-03-19T13:49:12.483Z,22.40
2019-03-19T13:51:42.631Z,22.10
2019-03-19T13:54:12.939Z,25.80
2019-03-19T13:56:43.100Z,27.90
2019-03-19T13:59:13.367Z,28.00
2019-03-19T14:01:43.511Z,27.10
2019-03-19T14:04:13.688Z,29.00
2019-03-19T14:06:43.860Z,29.10
2019-03-19T14:09:14.010Z,27.80
2019-03-19T14:11:44.160Z,27.20
2019-03-19T14:14:14.344Z,30.00
2019-03-19T14:16:44.508Z,33.10
2019-03-19T14:19:14.778Z,28.00
2019-03-19T14:21:44.972Z,27.70
2019-03-19T14:24:15.160Z,32.00
2019-03-19T14:26:45.319Z,30.20
2019-03-19T14:29:15.530Z,28.00
2019-03-19T14:31:45.688Z,30.20
2019-03-19T14:34:15.885Z,32.80
2019-03-19T14:36:47.123Z,31.40
2019-03-19T14:39:17.387Z,32.40
2019-03-19T14:41:47.593Z,32.30
2019-03-19T14:44:17.727Z,38.10
2019-03-19T14:46:47.916Z,39.50
2019-03-19T14:49:18.291Z,36.30
2019-03-19T14:51:48.493Z,38.60
2019-03-19T14:54:18.680Z,42.10
2019-03-19T14:56:54.044Z,41.70
2019-03-19T14:59:24.252Z,50.40
2019-03-19T15:01:54.527Z,47.10
2019-03-19T15:04:25.739Z,44.20
2019-03-19T15:06:56.009Z,51.30
2019-03-19T15:09:26.275Z,59.50
2019-03-19T15:11:56.466Z,51.80
2019-03-19T15:14:26.794Z,51.20
2019-03-19T15:17:04.807Z,52.20
2019-03-19T15:19:28.857Z,58.90
2019-03-19T15:21:59.011Z,70.30
2019-03-19T15:24:29.296Z,74.50
2019-03-19T15:26:59.540Z,74.80
2019-03-19T15:29:29.766Z,75.00
2019-03-19T15:32:00.016Z,76.10
2019-03-19T15:34:30.207Z,65.70
2019-03-19T15:37:01.577Z,65.20
2019-03-19T15:39:31.769Z,73.20
2019-03-19T15:42:01.956Z,74.80
2019-03-19T15:44:32.240Z,76.90
2019-03-19T15:47:02.502Z,75.70
2019-03-19T15:49:38.197Z,75.00
2019-03-19T15:52:04.677Z,65.20
2019-03-19T15:54:34.951Z,67.30
2019-03-19T15:57:05.106Z,66.80
2019-03-19T15:59:36.323Z,71.80
2019-03-19T16:02:06.510Z,73.00
2019-03-19T16:04:36.783Z,74.00
2019-03-19T16:07:06.995Z,72.90
2019-03-19T16:09:37.204Z,66.00
2019-03-19T16:12:07.429Z,69.50
2019-03-19T16:14:38.665Z,68.00
2019-03-19T16:17:08.817Z,66.50
2019-03-19T16:19:39.000Z,64.90
2019-03-19T16:22:09.148Z,69.30
2019-03-19T16:24:39.424Z,64.70
2019-03-19T16:27:09.563Z,66.70
2019-03-19T16:29:39.770Z,67.40
2019-03-19T16:32:09.936Z,63.00
2019-03-19T16:34:40.132Z,67.60
2019-03-19T16:37:11.899Z,78.90
2019-03-19T16:39:42.131Z,80.00
2019-03-19T16:42:12.297Z,91.00
2019-03-19T16:44:42.490Z,81.50
2019-03-19T16:47:12.715Z,81.90
2019-03-19T16:49:42.924Z,77.10
2019-03-19T16:52:13.189Z,80.00
2019-03-19T16:54:43.395Z,83.20
2019-03-19T16:57:14.929Z,80.60
2019-03-19T16:59:45.177Z,76.30
2019-03-19T17:02:15.358Z,78.10
2019-03-19T17:04:45.630Z,83.10
2019-03-19T17:07:15.813Z,87.80
2019-03-19T17:09:46.080Z,80.40
2019-03-19T17:12:16.280Z,80.50
2019-03-19T17:14:46.471Z,88.70
2019-03-19T17:17:16.704Z,87.60
2019-03-19T17:19:46.898Z,91.80
2019-03-19T17:22:17.083Z,90.20
2019-03-19T17:24:48.753Z,84.80
2019-03-19T17:27:18.972Z,90.00
2019-03-19T17:29:49.183Z,89.00
2019-03-19T17:32:19.531Z,88.80
2019-03-19T17:34:49.850Z,91.00
2019-03-19T17:37:20.152Z,90.70
2019-03-19T17:39:50.364Z,91.90
2019-03-19T17:42:20.750Z,94.10
2019-03-19T17:44:50.988Z,98.20
2019-03-19T17:47:21.166Z,96.00
2019-03-19T17:49:52.927Z,96.30
2019-03-19T17:52:23.164Z,96.40
2019-03-19T17:54:53.395Z,97.10
2019-03-19T17:57:23.627Z,98.40
2019-03-19T17:59:53.830Z,97.90
2019-03-19T18:02:24.424Z,99.90
2019-03-19T18:04:56.337Z,99.90
2019-03-19T18:07:26.667Z,99.90
2019-03-19T18:09:57.940Z,99.90
2019-03-19T18:12:29.256Z,99.90
2019-03-19T18:14:59.451Z,99.90
2019-03-19T18:17:29.701Z,99.90
2019-03-19T18:20:00.021Z,99.90
2019-03-19T18:22:30.277Z,99.90
2019-03-19T18:25:00.560Z,99.90
2019-03-19T18:27:30.941Z,99.90
2019-03-19T18:30:01.240Z,99.90
2019-03-19T18:32:35.450Z,99.90
2019-03-19T18:35:04.975Z,99.90
2019-03-19T18:37:35.145Z,99.90
2019-03-19T18:40:05.588Z,99.90
2019-03-19T18:42:35.828Z,99.90
2019-03-19T18:45:07.304Z,99.90
2019-03-19T18:47:37.439Z,99.90
2019-03-19T18:50:09.694Z,99.90
2019-03-19T18:52:41.182Z,99.90
2019-03-19T18:55:11.533Z,99.90
2019-03-19T18:57:41.861Z,99.90
2019-03-19T19:00:14.143Z,99.90
2019-03-19T19:02:49.578Z,99.90
2019-03-19T19:05:16.324Z,99.90
2019-03-19T19:07:46.483Z,99.90
2019-03-19T19:10:16.750Z,99.90
2019-03-19T19:12:47.023Z,99.90
2019-03-19T19:15:17.251Z,99.90
2019-03-19T19:17:47.428Z,99.90
2019-03-19T19:20:17.643Z,99.90
2019-03-19T19:22:47.937Z,99.90
2019-03-19T19:25:18.126Z,99.90
2019-03-19T19:27:48.311Z,99.90
2019-03-19T19:30:19.221Z,99.90
2019-03-19T19:33:00.535Z,99.90
2019-03-19T19:35:21.328Z,99.90
2019-03-19T19:37:51.547Z,99.90
2019-03-19T19:40:22.055Z,99.90
2019-03-19T19:42:52.289Z,99.90
2019-03-19T19:45:22.464Z,99.90
2019-03-19T19:47:52.785Z,99.90
2019-03-19T19:50:23.102Z,99.90
2019-03-19T19:52:53.387Z,99.90
2019-03-19T19:55:25.424Z,99.90
2019-03-19T19:57:55.591Z,99.90
2019-03-19T20:00:25.821Z,99.90
2019-03-19T20:02:56.039Z,99.90
2019-03-19T20:05:26.265Z,99.90
2019-03-19T20:07:56.443Z,99.90
2019-03-19T20:10:26.717Z,99.90
2019-03-19T20:12:57.045Z,99.90
2019-03-19T20:15:27.236Z,99.90
2019-03-19T20:17:57.446Z,99.90
2019-03-19T20:20:27.837Z,99.90
2019-03-19T20:22:58.970Z,99.90
2019-03-19T20:25:29.157Z,99.90
2019-03-19T20:28:00.392Z,99.90
2019-03-19T20:30:30.633Z,99.90
2019-03-19T20:33:00.896Z,99.90
2019-03-19T20:35:31.221Z,99.90
2019-03-19T20:38:02.396Z,99.90
2019-03-19T20:40:32.617Z,99.90
2019-03-19T20:43:02.815Z,99.90
2019-03-19T20:45:33.016Z,99.90
2019-03-19T20:48:03.212Z,99.90
2019-03-19T20:50:33.578Z,99.90
2019-03-19T20:53:03.854Z,99.90
2019-03-19T20:55:34.090Z,99.90
2019-03-19T20:58:04.369Z,99.90
2019-03-19T21:00:34.600Z,99.90
2019-03-19T21:03:05.039Z,99.90
2019-03-19T21:05:35.240Z,99.90
2019-03-19T21:08:05.786Z,99.90
2019-03-19T21:10:36.135Z,99.90
2019-03-19T21:13:06.368Z,99.90
2019-03-19T21:15:36.606Z,99.90
2019-03-19T21:18:06.799Z,99.90
2019-03-19T21:20:36.998Z,99.90
2019-03-19T21:23:07.227Z,99.90
2019-03-19T21:25:37.403Z,99.90
2019-03-19T21:28:13.955Z,99.90
2019-03-19T21:30:39.648Z,99.90
2019-03-19T21:33:09.831Z,99.90
2019-03-19T21:35:40.012Z,99.90
2019-03-19T21:38:10.494Z,99.90
2019-03-19T21:40:40.781Z,99.90
2019-03-19T21:43:11.088Z,99.90
2019-03-19T21:45:41.286Z,99.90
2019-03-19T21:48:11.584Z,99.90
2019-03-19T21:50:44.427Z,99.90
2019-03-19T21:53:14.672Z,99.90
2019-03-19T21:55:44.870Z,99.90
2019-03-19T21:58:15.127Z,99.90
2019-03-19T22:00:46.475Z,99.90
2019-03-19T22:03:17.856Z,99.90
2019-03-19T22:05:48.037Z,99.90
2019-03-19T22:08:18.371Z,99.90
2019-03-19T22:10:53.635Z,99.90
2019-03-19T22:13:23.954Z,99.90
2019-03-19T22:15:55.709Z,99.90
2019-03-19T22:18:25.952Z,99.90
2019-03-19T22:20:56.266Z,99.90
2019-03-19T22:23:26.436Z,99.90
2019-03-19T22:25:57.587Z,99.90
2019-03-19T22:28:27.904Z,99.90
2019-03-19T22:30:58.075Z,99.90
2019-03-19T22:33:35.313Z,99.90
2019-03-19T22:36:05.526Z,99.90
2019-03-19T22:38:35.708Z,99.90
2019-03-19T22:41:05.979Z,99.90
2019-03-19T22:43:36.160Z,99.90
2019-03-19T22:46:06.310Z,99.90
2019-03-19T22:48:36.521Z,99.90
2019-03-19T22:51:06.682Z,99.90
2019-03-19T22:53:36.871Z,99.90
2019-03-19T22:56:10.457Z,99.90
2019-03-19T22:58:40.620Z,99.90
2019-03-19T23:01:11.074Z,99.90
2019-03-19T23:03:42.330Z,99.90
2019-03-19T23:06:13.660Z,99.90
2019-03-19T23:08:43.896Z,99.90
2019-03-19T23:11:14.084Z,99.90
2019-03-19T23:13:44.283Z,99.90
2019-03-19T23:16:15.523Z,99.90
2019-03-19T23:18:45.697Z,99.90
2019-03-19T23:21:15.972Z,99.90
2019-03-19T23:23:46.144Z,99.90
2019-03-19T23:26:16.355Z,99.90
2019-03-19T23:28:46.528Z,99.90
2019-03-19T23:31:16.710Z,99.90
2019-03-19T23:33:46.878Z,99.90
2019-03-19T23:36:17.122Z,99.90
2019-03-19T23:38:47.310Z,99.90
2019-03-19T23:41:17.467Z,99.90
2019-03-19T23:43:47.677Z,99.90
2019-03-19T23:46:17.927Z,99.90
2019-03-19T23:48:48.220Z,99.90
2019-03-19T23:51:18.383Z,99.90
2019-03-19T23:53:48.591Z,99.90
2019-03-19T23:56:18.831Z,99.90
2019-03-19T23:58:49.072Z,99.90
